Emmen Airport LSME

Flugplatz Daten

Name: Emmen Airport

Ident: LSME

Lat: 47,0923996

Long: 8,305120468

Platzhöhe: 1400 ft

IataCode:

City:

Metar

2021/08/02 09:50
LSME 020950Z AUTO 00000KT 9999NDV BKN026 BKN100 19/12 Q1017 RMK

Taf

2021/08/01 17:00
TAF LSME 011625Z 0117/0223 VRB02KT 9999 SCT023 SCT032 BKN053
TEMPO 0117/0122 SHRA SCT040TCU PROB30
TEMPO 0117/0120 27012G25KT TSRA SCT040CB PROB40 0202/0207 3500 MIFG PROB30 0203/0206 1200 BCFG BKN003
TEMPO 0215/0220 SHRA FEW035TCU
Gewünschte Webcam nicht vorhanden? Dann fügen Sie eine hinzu. Sie wird dann so schnell wie möglich freigeschaltet
Url: Title: